sensor_id;sensor_type;location;lat;lon;timestamp;P1;durP1;ratioP1;P2;durP2;ratioP2
19944;SDS011;10134;50.952;6.930;2023-03-14T00:01:10;1.85;;;0.90;;
19944;SDS011;10134;50.952;6.930;2023-03-14T00:03:40;4.50;;;1.63;;
19944;SDS011;10134;50.952;6.930;2023-03-14T00:06:08;3.25;;;1.50;;
19944;SDS011;10134;50.952;6.930;2023-03-14T00:08:36;2.70;;;1.10;;
19944;SDS011;10134;50.952;6.930;2023-03-14T00:11:15;4.32;;;1.60;;
19944;SDS011;10134;50.952;6.930;2023-03-14T00:13:50;2.88;;;1.38;;
19944;SDS011;10134;50.952;6.930;2023-03-14T00:16:17;2.97;;;1.70;;
19944;SDS011;10134;50.952;6.930;2023-03-14T00:18:45;3.33;;;1.38;;
19944;SDS011;10134;50.952;6.930;2023-03-14T00:21:13;3.40;;;1.10;;
19944;SDS011;10134;50.952;6.930;2023-03-14T00:23:41;3.97;;;1.15;;
19944;SDS011;10134;50.952;6.930;2023-03-14T00:26:10;8.05;;;1.60;;
19944;SDS011;10134;50.952;6.930;2023-03-14T00:28:40;5.40;;;1.50;;
19944;SDS011;10134;50.952;6.930;2023-03-14T00:31:09;3.63;;;1.02;;
19944;SDS011;10134;50.952;6.930;2023-03-14T00:33:40;5.40;;;1.15;;
19944;SDS011;10134;50.952;6.930;2023-03-14T00:36:10;5.00;;;1.60;;
19944;SDS011;10134;50.952;6.930;2023-03-14T00:38:40;5.25;;;1.27;;
19944;SDS011;10134;50.952;6.930;2023-03-14T00:41:13;5.00;;;1.10;;
19944;SDS011;10134;50.952;6.930;2023-03-14T00:43:42;5.43;;;1.42;;
19944;SDS011;10134;50.952;6.930;2023-03-14T00:46:09;4.53;;;1.23;;
19944;SDS011;10134;50.952;6.930;2023-03-14T00:48:37;2.30;;;1.15;;
19944;SDS011;10134;50.952;6.930;2023-03-14T00:51:05;5.47;;;1.50;;
19944;SDS011;10134;50.952;6.930;2023-03-14T00:53:38;3.50;;;1.30;;
19944;SDS011;10134;50.952;6.930;2023-03-14T00:56:07;2.97;;;1.25;;
19944;SDS011;10134;50.952;6.930;2023-03-14T00:58:36;7.00;;;1.17;;
19944;SDS011;10134;50.952;6.930;2023-03-14T01:01:12;2.03;;;0.73;;
19944;SDS011;10134;50.952;6.930;2023-03-14T01:03:45;5.80;;;0.88;;
19944;SDS011;10134;50.952;6.930;2023-03-14T01:06:15;1.90;;;0.93;;
19944;SDS011;10134;50.952;6.930;2023-03-14T01:08:44;2.95;;;0.80;;
19944;SDS011;10134;50.952;6.930;2023-03-14T01:11:13;5.03;;;0.75;;
19944;SDS011;10134;50.952;6.930;2023-03-14T01:13:52;3.65;;;1.10;;
19944;SDS011;10134;50.952;6.930;2023-03-14T01:16:20;3.22;;;1.50;;
19944;SDS011;10134;50.952;6.930;2023-03-14T01:18:49;5.72;;;1.35;;
19944;SDS011;10134;50.952;6.930;2023-03-14T01:21:26;8.45;;;1.70;;
19944;SDS011;10134;50.952;6.930;2023-03-14T01:23:55;4.20;;;1.10;;
19944;SDS011;10134;50.952;6.930;2023-03-14T01:26:25;4.80;;;0.80;;
19944;SDS011;10134;50.952;6.930;2023-03-14T01:28:54;3.85;;;1.30;;
19944;SDS011;10134;50.952;6.930;2023-03-14T01:31:22;3.53;;;1.15;;
19944;SDS011;10134;50.952;6.930;2023-03-14T01:33:51;6.13;;;1.23;;
19944;SDS011;10134;50.952;6.930;2023-03-14T01:36:19;4.38;;;1.23;;
19944;SDS011;10134;50.952;6.930;2023-03-14T01:38:46;4.47;;;0.98;;
19944;SDS011;10134;50.952;6.930;2023-03-14T01:41:17;5.18;;;1.33;;
19944;SDS011;10134;50.952;6.930;2023-03-14T01:43:47;4.78;;;0.93;;
19944;SDS011;10134;50.952;6.930;2023-03-14T01:46:20;6.35;;;0.90;;
19944;SDS011;10134;50.952;6.930;2023-03-14T01:51:50;3.15;;;1.10;;
19944;SDS011;10134;50.952;6.930;2023-03-14T01:54:22;7.03;;;1.40;;
19944;SDS011;10134;50.952;6.930;2023-03-14T01:57:16;1.80;;;0.60;;
19944;SDS011;10134;50.952;6.930;2023-03-14T02:00:04;3.40;;;0.90;;
19944;SDS011;10134;50.952;6.930;2023-03-14T02:02:39;2.35;;;0.77;;
19944;SDS011;10134;50.952;6.930;2023-03-14T02:05:10;5.75;;;1.60;;
19944;SDS011;10134;50.952;6.930;2023-03-14T02:07:49;2.08;;;0.77;;
19944;SDS011;10134;50.952;6.930;2023-03-14T02:10:29;3.22;;;1.15;;
19944;SDS011;10134;50.952;6.930;2023-03-14T02:13:01;3.92;;;0.63;;
19944;SDS011;10134;50.952;6.930;2023-03-14T02:15:44;2.10;;;1.00;;
19944;SDS011;10134;50.952;6.930;2023-03-14T02:18:32;1.80;;;0.88;;
19944;SDS011;10134;50.952;6.930;2023-03-14T02:21:29;3.92;;;0.98;;
19944;SDS011;10134;50.952;6.930;2023-03-14T02:24:09;1.55;;;0.75;;
19944;SDS011;10134;50.952;6.930;2023-03-14T02:27:07;1.85;;;0.55;;
19944;SDS011;10134;50.952;6.930;2023-03-14T02:29:56;2.70;;;0.60;;
19944;SDS011;10134;50.952;6.930;2023-03-14T02:32:33;1.88;;;0.60;;
19944;SDS011;10134;50.952;6.930;2023-03-14T02:35:05;1.00;;;0.65;;
19944;SDS011;10134;50.952;6.930;2023-03-14T02:37:41;7.53;;;1.02;;
19944;SDS011;10134;50.952;6.930;2023-03-14T02:40:33;4.28;;;0.70;;
19944;SDS011;10134;50.952;6.930;2023-03-14T02:43:00;1.88;;;1.02;;
19944;SDS011;10134;50.952;6.930;2023-03-14T02:45:34;1.42;;;0.52;;
19944;SDS011;10134;50.952;6.930;2023-03-14T02:48:05;4.07;;;0.65;;
19944;SDS011;10134;50.952;6.930;2023-03-14T02:50:37;1.55;;;0.60;;
19944;SDS011;10134;50.952;6.930;2023-03-14T02:53:05;4.20;;;1.27;;
19944;SDS011;10134;50.952;6.930;2023-03-14T02:55:33;3.20;;;0.80;;
19944;SDS011;10134;50.952;6.930;2023-03-14T02:58:06;4.30;;;1.08;;
19944;SDS011;10134;50.952;6.930;2023-03-14T03:00:35;3.05;;;0.73;;
19944;SDS011;10134;50.952;6.930;2023-03-14T03:03:04;2.95;;;0.70;;
19944;SDS011;10134;50.952;6.930;2023-03-14T03:05:32;1.55;;;0.73;;
19944;SDS011;10134;50.952;6.930;2023-03-14T03:08:01;5.82;;;1.20;;
19944;SDS011;10134;50.952;6.930;2023-03-14T03:10:30;1.58;;;0.63;;
19944;SDS011;10134;50.952;6.930;2023-03-14T03:12:58;2.55;;;0.80;;
19944;SDS011;10134;50.952;6.930;2023-03-14T03:15:26;3.05;;;0.90;;
19944;SDS011;10134;50.952;6.930;2023-03-14T03:17:55;3.03;;;1.00;;
19944;SDS011;10134;50.952;6.930;2023-03-14T03:20:23;3.15;;;1.42;;
19944;SDS011;10134;50.952;6.930;2023-03-14T03:22:50;3.05;;;1.05;;
19944;SDS011;10134;50.952;6.930;2023-03-14T03:25:18;3.55;;;0.93;;
19944;SDS011;10134;50.952;6.930;2023-03-14T03:27:45;6.00;;;1.20;;
19944;SDS011;10134;50.952;6.930;2023-03-14T03:30:16;3.05;;;1.20;;
19944;SDS011;10134;50.952;6.930;2023-03-14T03:32:44;3.42;;;1.20;;
19944;SDS011;10134;50.952;6.930;2023-03-14T03:35:12;3.63;;;1.15;;
19944;SDS011;10134;50.952;6.930;2023-03-14T03:37:40;8.05;;;1.13;;
19944;SDS011;10134;50.952;6.930;2023-03-14T03:40:08;5.93;;;1.45;;
19944;SDS011;10134;50.952;6.930;2023-03-14T03:42:36;3.13;;;1.20;;
19944;SDS011;10134;50.952;6.930;2023-03-14T03:45:07;8.05;;;1.63;;
19944;SDS011;10134;50.952;6.930;2023-03-14T03:47:41;4.68;;;1.20;;
19944;SDS011;10134;50.952;6.930;2023-03-14T03:50:08;5.57;;;1.20;;
19944;SDS011;10134;50.952;6.930;2023-03-14T03:52:36;6.43;;;1.60;;
19944;SDS011;10134;50.952;6.930;2023-03-14T03:55:03;5.28;;;1.00;;
19944;SDS011;10134;50.952;6.930;2023-03-14T03:57:31;7.40;;;1.55;;
19944;SDS011;10134;50.952;6.930;2023-03-14T03:59:58;6.43;;;1.50;;
19944;SDS011;10134;50.952;6.930;2023-03-14T04:02:27;7.88;;;1.42;;
19944;SDS011;10134;50.952;6.930;2023-03-14T04:04:55;10.05;;;1.27;;
19944;SDS011;10134;50.952;6.930;2023-03-14T04:07:22;4.07;;;1.33;;
19944;SDS011;10134;50.952;6.930;2023-03-14T04:09:50;4.63;;;1.20;;
19944;SDS011;10134;50.952;6.930;2023-03-14T04:12:35;2.75;;;1.13;;
19944;SDS011;10134;50.952;6.930;2023-03-14T04:15:09;2.88;;;1.00;;
19944;SDS011;10134;50.952;6.930;2023-03-14T04:17:40;4.10;;;0.77;;
19944;SDS011;10134;50.952;6.930;2023-03-14T04:20:08;3.88;;;1.05;;
19944;SDS011;10134;50.952;6.930;2023-03-14T04:22:39;3.47;;;1.15;;
19944;SDS011;10134;50.952;6.930;2023-03-14T04:25:10;5.00;;;1.00;;
19944;SDS011;10134;50.952;6.930;2023-03-14T04:27:42;3.22;;;0.88;;
19944;SDS011;10134;50.952;6.930;2023-03-14T04:30:17;3.42;;;0.90;;
19944;SDS011;10134;50.952;6.930;2023-03-14T04:32:57;1.05;;;0.80;;
19944;SDS011;10134;50.952;6.930;2023-03-14T04:35:26;4.15;;;1.05;;
19944;SDS011;10134;50.952;6.930;2023-03-14T04:37:58;7.55;;;1.75;;
19944;SDS011;10134;50.952;6.930;2023-03-14T04:40:26;4.00;;;0.77;;
19944;SDS011;10134;50.952;6.930;2023-03-14T04:42:59;1.35;;;0.73;;
19944;SDS011;10134;50.952;6.930;2023-03-14T04:45:27;3.17;;;0.60;;
19944;SDS011;10134;50.952;6.930;2023-03-14T04:47:56;3.13;;;1.27;;
19944;SDS011;10134;50.952;6.930;2023-03-14T04:50:24;3.72;;;1.00;;
19944;SDS011;10134;50.952;6.930;2023-03-14T04:52:51;2.35;;;0.88;;
19944;SDS011;10134;50.952;6.930;2023-03-14T04:55:18;2.20;;;0.63;;
19944;SDS011;10134;50.952;6.930;2023-03-14T04:57:47;1.60;;;0.80;;
19944;SDS011;10134;50.952;6.930;2023-03-14T05:00:14;2.10;;;0.70;;
19944;SDS011;10134;50.952;6.930;2023-03-14T05:02:47;1.25;;;0.73;;
19944;SDS011;10134;50.952;6.930;2023-03-14T05:05:31;2.30;;;0.55;;
19944;SDS011;10134;50.952;6.930;2023-03-14T05:08:17;5.00;;;0.95;;
19944;SDS011;10134;50.952;6.930;2023-03-14T05:11:11;2.35;;;0.55;;
19944;SDS011;10134;50.952;6.930;2023-03-14T05:13:53;1.58;;;0.70;;
19944;SDS011;10134;50.952;6.930;2023-03-14T05:16:39;2.33;;;0.60;;
19944;SDS011;10134;50.952;6.930;2023-03-14T05:19:21;1.00;;;0.60;;
19944;SDS011;10134;50.952;6.930;2023-03-14T05:25:02;1.88;;;0.57;;
19944;SDS011;10134;50.952;6.930;2023-03-14T05:27:45;2.53;;;0.60;;
19944;SDS011;10134;50.952;6.930;2023-03-14T05:30:30;1.10;;;0.63;;
19944;SDS011;10134;50.952;6.930;2023-03-14T05:33:18;0.65;;;0.47;;
19944;SDS011;10134;50.952;6.930;2023-03-14T05:36:11;1.05;;;0.50;;
19944;SDS011;10134;50.952;6.930;2023-03-14T05:38:58;0.60;;;0.45;;
19944;SDS011;10134;50.952;6.930;2023-03-14T05:41:42;0.68;;;0.50;;
19944;SDS011;10134;50.952;6.930;2023-03-14T05:44:36;0.75;;;0.30;;
19944;SDS011;10134;50.952;6.930;2023-03-14T05:47:09;3.00;;;0.82;;
19944;SDS011;10134;50.952;6.930;2023-03-14T05:49:47;0.93;;;0.52;;
19944;SDS011;10134;50.952;6.930;2023-03-14T05:52:41;1.30;;;0.35;;
19944;SDS011;10134;50.952;6.930;2023-03-14T05:55:19;0.85;;;0.50;;
19944;SDS011;10134;50.952;6.930;2023-03-14T05:58:22;2.92;;;0.40;;
19944;SDS011;10134;50.952;6.930;2023-03-14T06:01:08;0.88;;;0.43;;
19944;SDS011;10134;50.952;6.930;2023-03-14T06:03:59;0.80;;;0.32;;
19944;SDS011;10134;50.952;6.930;2023-03-14T06:06:27;0.88;;;0.40;;
19944;SDS011;10134;50.952;6.930;2023-03-14T06:08:54;0.85;;;0.47;;
19944;SDS011;10134;50.952;6.930;2023-03-14T06:11:21;0.68;;;0.35;;
19944;SDS011;10134;50.952;6.930;2023-03-14T06:13:49;1.20;;;0.40;;
19944;SDS011;10134;50.952;6.930;2023-03-14T06:16:17;0.57;;;0.55;;
19944;SDS011;10134;50.952;6.930;2023-03-14T06:18:46;2.97;;;0.57;;
19944;SDS011;10134;50.952;6.930;2023-03-14T06:21:18;0.35;;;0.32;;
19944;SDS011;10134;50.952;6.930;2023-03-14T06:23:47;5.30;;;0.90;;
19944;SDS011;10134;50.952;6.930;2023-03-14T06:26:15;1.65;;;0.75;;
19944;SDS011;10134;50.952;6.930;2023-03-14T06:28:43;3.03;;;0.95;;
19944;SDS011;10134;50.952;6.930;2023-03-14T06:31:10;0.75;;;0.70;;
19944;SDS011;10134;50.952;6.930;2023-03-14T06:33:48;1.15;;;0.85;;
19944;SDS011;10134;50.952;6.930;2023-03-14T06:36:15;3.10;;;1.17;;
19944;SDS011;10134;50.952;6.930;2023-03-14T06:38:45;3.13;;;1.10;;
19944;SDS011;10134;50.952;6.930;2023-03-14T06:41:13;2.80;;;1.25;;
19944;SDS011;10134;50.952;6.930;2023-03-14T06:43:43;2.08;;;0.90;;
19944;SDS011;10134;50.952;6.930;2023-03-14T06:46:12;3.35;;;1.05;;
19944;SDS011;10134;50.952;6.930;2023-03-14T06:48:41;4.75;;;2.10;;
19944;SDS011;10134;50.952;6.930;2023-03-14T06:51:10;1.33;;;0.73;;
19944;SDS011;10134;50.952;6.930;2023-03-14T06:53:38;2.42;;;1.00;;
19944;SDS011;10134;50.952;6.930;2023-03-14T06:56:06;3.55;;;0.88;;
19944;SDS011;10134;50.952;6.930;2023-03-14T06:58:34;3.85;;;0.70;;
19944;SDS011;10134;50.952;6.930;2023-03-14T07:01:04;2.08;;;1.17;;
19944;SDS011;10134;50.952;6.930;2023-03-14T07:03:38;1.02;;;0.73;;
19944;SDS011;10134;50.952;6.930;2023-03-14T07:06:06;1.20;;;0.43;;
19944;SDS011;10134;50.952;6.930;2023-03-14T07:08:33;1.98;;;0.80;;
19944;SDS011;10134;50.952;6.930;2023-03-14T07:11:01;1.83;;;0.35;;
19944;SDS011;10134;50.952;6.930;2023-03-14T07:13:29;2.60;;;0.60;;
19944;SDS011;10134;50.952;6.930;2023-03-14T07:16:03;1.42;;;0.43;;
19944;SDS011;10134;50.952;6.930;2023-03-14T07:18:32;2.28;;;0.50;;
19944;SDS011;10134;50.952;6.930;2023-03-14T07:21:03;1.50;;;0.30;;
19944;SDS011;10134;50.952;6.930;2023-03-14T07:23:33;1.75;;;0.50;;
19944;SDS011;10134;50.952;6.930;2023-03-14T07:26:01;3.83;;;1.02;;
19944;SDS011;10134;50.952;6.930;2023-03-14T07:28:30;1.05;;;0.82;;
19944;SDS011;10134;50.952;6.930;2023-03-14T07:31:03;0.35;;;0.35;;
19944;SDS011;10134;50.952;6.930;2023-03-14T07:33:32;0.63;;;0.43;;
19944;SDS011;10134;50.952;6.930;2023-03-14T07:36:00;0.52;;;0.40;;
19944;SDS011;10134;50.952;6.930;2023-03-14T07:38:28;2.17;;;1.10;;
19944;SDS011;10134;50.952;6.930;2023-03-14T07:41:23;3.55;;;1.30;;
19944;SDS011;10134;50.952;6.930;2023-03-14T07:44:19;1.67;;;1.10;;
19944;SDS011;10134;50.952;6.930;2023-03-14T07:46:46;2.03;;;0.60;;
19944;SDS011;10134;50.952;6.930;2023-03-14T07:49:14;2.13;;;1.00;;
19944;SDS011;10134;50.952;6.930;2023-03-14T07:51:41;1.35;;;0.50;;
19944;SDS011;10134;50.952;6.930;2023-03-14T07:54:10;1.65;;;0.57;;
19944;SDS011;10134;50.952;6.930;2023-03-14T07:56:37;1.70;;;0.75;;
19944;SDS011;10134;50.952;6.930;2023-03-14T07:59:05;1.35;;;0.65;;
19944;SDS011;10134;50.952;6.930;2023-03-14T08:01:32;2.28;;;0.73;;
19944;SDS011;10134;50.952;6.930;2023-03-14T08:03:59;1.92;;;0.63;;
19944;SDS011;10134;50.952;6.930;2023-03-14T08:06:27;1.35;;;0.50;;
19944;SDS011;10134;50.952;6.930;2023-03-14T08:08:54;2.88;;;0.50;;
19944;SDS011;10134;50.952;6.930;2023-03-14T08:11:22;4.38;;;0.55;;
19944;SDS011;10134;50.952;6.930;2023-03-14T08:13:49;1.00;;;0.50;;
19944;SDS011;10134;50.952;6.930;2023-03-14T08:16:18;1.15;;;0.32;;
19944;SDS011;10134;50.952;6.930;2023-03-14T08:18:46;0.40;;;0.20;;
19944;SDS011;10134;50.952;6.930;2023-03-14T08:21:13;0.60;;;0.38;;
19944;SDS011;10134;50.952;6.930;2023-03-14T08:23:41;0.85;;;0.28;;
19944;SDS011;10134;50.952;6.930;2023-03-14T08:26:08;0.73;;;0.40;;
19944;SDS011;10134;50.952;6.930;2023-03-14T08:28:36;0.43;;;0.30;;
19944;SDS011;10134;50.952;6.930;2023-03-14T08:31:03;0.45;;;0.28;;
19944;SDS011;10134;50.952;6.930;2023-03-14T08:33:30;0.77;;;0.50;;
19944;SDS011;10134;50.952;6.930;2023-03-14T08:35:59;0.30;;;0.30;;
19944;SDS011;10134;50.952;6.930;2023-03-14T08:38:27;0.50;;;0.40;;
19944;SDS011;10134;50.952;6.930;2023-03-14T08:40:58;0.88;;;0.40;;
19944;SDS011;10134;50.952;6.930;2023-03-14T08:43:27;0.25;;;0.20;;
19944;SDS011;10134;50.952;6.930;2023-03-14T08:45:58;0.28;;;0.28;;
19944;SDS011;10134;50.952;6.930;2023-03-14T08:48:26;1.45;;;0.82;;
19944;SDS011;10134;50.952;6.930;2023-03-14T08:50:56;0.30;;;0.30;;
19944;SDS011;10134;50.952;6.930;2023-03-14T08:53:24;0.55;;;0.43;;
19944;SDS011;10134;50.952;6.930;2023-03-14T08:55:54;1.05;;;0.50;;
19944;SDS011;10134;50.952;6.930;2023-03-14T08:58:22;1.35;;;0.40;;
19944;SDS011;10134;50.952;6.930;2023-03-14T09:00:50;1.27;;;0.40;;
19944;SDS011;10134;50.952;6.930;2023-03-14T09:03:17;0.90;;;0.50;;
19944;SDS011;10134;50.952;6.930;2023-03-14T09:05:45;0.68;;;0.47;;
19944;SDS011;10134;50.952;6.930;2023-03-14T09:08:12;0.77;;;0.50;;
19944;SDS011;10134;50.952;6.930;2023-03-14T09:10:40;2.60;;;0.60;;
19944;SDS011;10134;50.952;6.930;2023-03-14T09:13:07;0.80;;;0.52;;
19944;SDS011;10134;50.952;6.930;2023-03-14T09:15:34;5.40;;;0.52;;
19944;SDS011;10134;50.952;6.930;2023-03-14T09:18:02;2.30;;;0.90;;
19944;SDS011;10134;50.952;6.930;2023-03-14T09:20:29;0.90;;;0.60;;
19944;SDS011;10134;50.952;6.930;2023-03-14T09:22:57;0.68;;;0.57;;
19944;SDS011;10134;50.952;6.930;2023-03-14T09:25:24;5.10;;;1.35;;
19944;SDS011;10134;50.952;6.930;2023-03-14T09:27:51;1.38;;;0.70;;
19944;SDS011;10134;50.952;6.930;2023-03-14T09:30:18;3.72;;;0.70;;
19944;SDS011;10134;50.952;6.930;2023-03-14T09:32:46;1.15;;;0.70;;
19944;SDS011;10134;50.952;6.930;2023-03-14T09:35:13;1.02;;;0.60;;
19944;SDS011;10134;50.952;6.930;2023-03-14T09:37:40;1.63;;;0.80;;
19944;SDS011;10134;50.952;6.930;2023-03-14T09:40:15;1.77;;;0.52;;
19944;SDS011;10134;50.952;6.930;2023-03-14T09:42:43;0.90;;;0.45;;
19944;SDS011;10134;50.952;6.930;2023-03-14T09:45:20;0.73;;;0.70;;
19944;SDS011;10134;50.952;6.930;2023-03-14T09:47:53;0.73;;;0.57;;
19944;SDS011;10134;50.952;6.930;2023-03-14T09:50:26;0.80;;;0.50;;
19944;SDS011;10134;50.952;6.930;2023-03-14T09:53:05;0.85;;;0.60;;
19944;SDS011;10134;50.952;6.930;2023-03-14T09:55:38;6.28;;;2.50;;
19944;SDS011;10134;50.952;6.930;2023-03-14T09:58:09;1.38;;;0.70;;
19944;SDS011;10134;50.952;6.930;2023-03-14T10:00:42;0.68;;;0.60;;
19944;SDS011;10134;50.952;6.930;2023-03-14T10:03:18;0.88;;;0.68;;
19944;SDS011;10134;50.952;6.930;2023-03-14T10:05:49;2.13;;;0.60;;
19944;SDS011;10134;50.952;6.930;2023-03-14T10:08:17;0.98;;;0.80;;
19944;SDS011;10134;50.952;6.930;2023-03-14T10:10:44;0.80;;;0.80;;
19944;SDS011;10134;50.952;6.930;2023-03-14T10:13:25;1.75;;;1.10;;
19944;SDS011;10134;50.952;6.930;2023-03-14T10:15:59;1.25;;;1.13;;
19944;SDS011;10134;50.952;6.930;2023-03-14T10:18:29;2.72;;;1.58;;
19944;SDS011;10134;50.952;6.930;2023-03-14T10:21:41;1.30;;;1.17;;
19944;SDS011;10134;50.952;6.930;2023-03-14T10:23:52;2.00;;;1.20;;
19944;SDS011;10134;50.952;6.930;2023-03-14T10:26:24;1.98;;;1.17;;
19944;SDS011;10134;50.952;6.930;2023-03-14T10:29:01;2.88;;;1.10;;
19944;SDS011;10134;50.952;6.930;2023-03-14T10:31:45;2.42;;;1.20;;
19944;SDS011;10134;50.952;6.930;2023-03-14T10:34:23;1.30;;;1.00;;
19944;SDS011;10134;50.952;6.930;2023-03-14T10:36:53;2.00;;;1.20;;
19944;SDS011;10134;50.952;6.930;2023-03-14T10:39:30;3.13;;;1.10;;
19944;SDS011;10134;50.952;6.930;2023-03-14T10:42:12;2.28;;;1.00;;
19944;SDS011;10134;50.952;6.930;2023-03-14T10:44:44;1.63;;;1.25;;
19944;SDS011;10134;50.952;6.930;2023-03-14T10:47:15;1.85;;;1.27;;
19944;SDS011;10134;50.952;6.930;2023-03-14T10:49:46;1.75;;;0.90;;
19944;SDS011;10134;50.952;6.930;2023-03-14T10:54:46;2.47;;;1.00;;
19944;SDS011;10134;50.952;6.930;2023-03-14T10:57:15;1.42;;;0.80;;
19944;SDS011;10134;50.952;6.930;2023-03-14T10:59:46;1.10;;;0.68;;
19944;SDS011;10134;50.952;6.930;2023-03-14T11:08:01;2.10;;;1.15;;
19944;SDS011;10134;50.952;6.930;2023-03-14T11:10:35;4.07;;;1.08;;
19944;SDS011;10134;50.952;6.930;2023-03-14T11:13:17;3.63;;;1.27;;
19944;SDS011;10134;50.952;6.930;2023-03-14T11:15:50;1.80;;;1.30;;
19944;SDS011;10134;50.952;6.930;2023-03-14T11:22:13;4.40;;;2.58;;
19944;SDS011;10134;50.952;6.930;2023-03-14T11:34:58;2.03;;;1.00;;
19944;SDS011;10134;50.952;6.930;2023-03-14T11:37:33;1.33;;;1.05;;
19944;SDS011;10134;50.952;6.930;2023-03-14T11:40:10;1.52;;;1.30;;
19944;SDS011;10134;50.952;6.930;2023-03-14T11:42:43;2.47;;;0.80;;
19944;SDS011;10134;50.952;6.930;2023-03-14T11:45:17;1.00;;;0.70;;
19944;SDS011;10134;50.952;6.930;2023-03-14T11:48:13;0.57;;;0.30;;
19944;SDS011;10134;50.952;6.930;2023-03-14T11:51:17;0.65;;;0.40;;
19944;SDS011;10134;50.952;6.930;2023-03-14T11:53:53;2.20;;;0.80;;
19944;SDS011;10134;50.952;6.930;2023-03-14T11:56:50;1.13;;;0.50;;
19944;SDS011;10134;50.952;6.930;2023-03-14T12:00:12;2.55;;;0.93;;
19944;SDS011;10134;50.952;6.930;2023-03-14T12:10:43;1.55;;;0.70;;
19944;SDS011;10134;50.952;6.930;2023-03-14T12:13:15;1.05;;;0.68;;
19944;SDS011;10134;50.952;6.930;2023-03-14T12:16:03;2.40;;;0.70;;
19944;SDS011;10134;50.952;6.930;2023-03-14T12:18:34;1.13;;;0.80;;
19944;SDS011;10134;50.952;6.930;2023-03-14T12:21:09;1.60;;;0.60;;
19944;SDS011;10134;50.952;6.930;2023-03-14T12:23:54;3.53;;;0.88;;
19944;SDS011;10134;50.952;6.930;2023-03-14T12:26:24;1.33;;;0.70;;
19944;SDS011;10134;50.952;6.930;2023-03-14T12:31:35;1.30;;;0.82;;
19944;SDS011;10134;50.952;6.930;2023-03-14T12:39:31;3.45;;;0.70;;
19944;SDS011;10134;50.952;6.930;2023-03-14T12:42:11;0.95;;;0.70;;
19944;SDS011;10134;50.952;6.930;2023-03-14T12:48:18;3.72;;;1.17;;
19944;SDS011;10134;50.952;6.930;2023-03-14T12:50:53;3.50;;;0.80;;
19944;SDS011;10134;50.952;6.930;2023-03-14T12:56:38;1.80;;;0.80;;
19944;SDS011;10134;50.952;6.930;2023-03-14T12:59:20;2.03;;;0.98;;
19944;SDS011;10134;50.952;6.930;2023-03-14T13:04:45;1.70;;;0.73;;
19944;SDS011;10134;50.952;6.930;2023-03-14T13:12:47;1.77;;;0.70;;
19944;SDS011;10134;50.952;6.930;2023-03-14T13:15:34;2.47;;;0.93;;
19944;SDS011;10134;50.952;6.930;2023-03-14T13:18:13;1.92;;;0.82;;
19944;SDS011;10134;50.952;6.930;2023-03-14T13:23:22;1.05;;;0.70;;
19944;SDS011;10134;50.952;6.930;2023-03-14T13:25:52;2.42;;;0.65;;
19944;SDS011;10134;50.952;6.930;2023-03-14T13:28:21;0.82;;;0.60;;
19944;SDS011;10134;50.952;6.930;2023-03-14T13:30:58;2.58;;;1.25;;
19944;SDS011;10134;50.952;6.930;2023-03-14T13:33:27;2.45;;;0.93;;
19944;SDS011;10134;50.952;6.930;2023-03-14T13:35:56;2.50;;;0.63;;
19944;SDS011;10134;50.952;6.930;2023-03-14T13:38:26;3.58;;;1.13;;
19944;SDS011;10134;50.952;6.930;2023-03-14T13:40:56;0.73;;;0.60;;
19944;SDS011;10134;50.952;6.930;2023-03-14T13:43:32;1.35;;;0.90;;
19944;SDS011;10134;50.952;6.930;2023-03-14T13:46:06;0.90;;;0.60;;
19944;SDS011;10134;50.952;6.930;2023-03-14T13:48:47;2.70;;;1.08;;
19944;SDS011;10134;50.952;6.930;2023-03-14T13:51:24;4.93;;;1.25;;
19944;SDS011;10134;50.952;6.930;2023-03-14T13:53:56;3.58;;;0.93;;
19944;SDS011;10134;50.952;6.930;2023-03-14T13:56:28;4.22;;;1.55;;
19944;SDS011;10134;50.952;6.930;2023-03-14T13:58:58;4.85;;;1.20;;
19944;SDS011;10134;50.952;6.930;2023-03-14T14:01:32;3.08;;;1.02;;
19944;SDS011;10134;50.952;6.930;2023-03-14T14:04:08;7.25;;;1.75;;
19944;SDS011;10134;50.952;6.930;2023-03-14T14:06:45;6.20;;;1.50;;
19944;SDS011;10134;50.952;6.930;2023-03-14T14:09:19;5.97;;;1.35;;
19944;SDS011;10134;50.952;6.930;2023-03-14T14:12:02;5.78;;;2.15;;
19944;SDS011;10134;50.952;6.930;2023-03-14T14:14:52;4.45;;;1.50;;
19944;SDS011;10134;50.952;6.930;2023-03-14T14:17:32;8.68;;;1.90;;
19944;SDS011;10134;50.952;6.930;2023-03-14T14:20:04;5.28;;;1.90;;
19944;SDS011;10134;50.952;6.930;2023-03-14T14:22:34;10.50;;;1.73;;
19944;SDS011;10134;50.952;6.930;2023-03-14T14:25:01;8.30;;;1.65;;
19944;SDS011;10134;50.952;6.930;2023-03-14T14:27:35;12.27;;;2.25;;
19944;SDS011;10134;50.952;6.930;2023-03-14T14:30:21;8.65;;;1.98;;
19944;SDS011;10134;50.952;6.930;2023-03-14T14:33:18;9.63;;;2.42;;
19944;SDS011;10134;50.952;6.930;2023-03-14T14:35:50;8.80;;;2.03;;
19944;SDS011;10134;50.952;6.930;2023-03-14T14:38:26;7.43;;;1.42;;
19944;SDS011;10134;50.952;6.930;2023-03-14T14:40:59;8.65;;;2.10;;
19944;SDS011;10134;50.952;6.930;2023-03-14T14:43:30;9.93;;;1.90;;
19944;SDS011;10134;50.952;6.930;2023-03-14T14:46:00;9.40;;;2.22;;
19944;SDS011;10134;50.952;6.930;2023-03-14T14:48:30;9.60;;;2.47;;
19944;SDS011;10134;50.952;6.930;2023-03-14T14:51:04;9.10;;;2.55;;
19944;SDS011;10134;50.952;6.930;2023-03-14T14:53:37;9.02;;;2.33;;
19944;SDS011;10134;50.952;6.930;2023-03-14T14:56:16;6.22;;;2.10;;
19944;SDS011;10134;50.952;6.930;2023-03-14T14:58:48;9.23;;;1.77;;
19944;SDS011;10134;50.952;6.930;2023-03-14T15:01:17;12.02;;;2.00;;
19944;SDS011;10134;50.952;6.930;2023-03-14T15:03:47;9.30;;;2.40;;
19944;SDS011;10134;50.952;6.930;2023-03-14T15:06:19;17.52;;;2.20;;
19944;SDS011;10134;50.952;6.930;2023-03-14T15:08:48;5.93;;;1.27;;
19944;SDS011;10134;50.952;6.930;2023-03-14T15:11:16;10.38;;;2.90;;
19944;SDS011;10134;50.952;6.930;2023-03-14T15:13:45;14.57;;;2.97;;
19944;SDS011;10134;50.952;6.930;2023-03-14T15:16:13;16.02;;;5.32;;
19944;SDS011;10134;50.952;6.930;2023-03-14T15:18:43;9.45;;;2.78;;
19944;SDS011;10134;50.952;6.930;2023-03-14T15:21:19;10.68;;;2.92;;
19944;SDS011;10134;50.952;6.930;2023-03-14T15:23:47;12.50;;;2.00;;
19944;SDS011;10134;50.952;6.930;2023-03-14T15:26:15;10.75;;;2.28;;
19944;SDS011;10134;50.952;6.930;2023-03-14T15:28:45;9.77;;;2.47;;
19944;SDS011;10134;50.952;6.930;2023-03-14T15:31:14;12.27;;;2.63;;
19944;SDS011;10134;50.952;6.930;2023-03-14T15:33:43;10.07;;;2.10;;
19944;SDS011;10134;50.952;6.930;2023-03-14T15:36:20;9.65;;;2.00;;
19944;SDS011;10134;50.952;6.930;2023-03-14T15:38:55;8.32;;;1.95;;
19944;SDS011;10134;50.952;6.930;2023-03-14T15:41:26;8.15;;;2.83;;
19944;SDS011;10134;50.952;6.930;2023-03-14T15:43:57;11.23;;;2.00;;
19944;SDS011;10134;50.952;6.930;2023-03-14T15:46:25;16.98;;;2.75;;
19944;SDS011;10134;50.952;6.930;2023-03-14T15:48:55;13.30;;;2.50;;
19944;SDS011;10134;50.952;6.930;2023-03-14T15:51:22;9.57;;;2.20;;
19944;SDS011;10134;50.952;6.930;2023-03-14T15:53:49;9.45;;;3.78;;
19944;SDS011;10134;50.952;6.930;2023-03-14T15:56:20;13.30;;;2.55;;
19944;SDS011;10134;50.952;6.930;2023-03-14T15:58:51;11.32;;;3.05;;
19944;SDS011;10134;50.952;6.930;2023-03-14T16:01:18;5.93;;;2.38;;
19944;SDS011;10134;50.952;6.930;2023-03-14T16:03:46;11.60;;;4.00;;
19944;SDS011;10134;50.952;6.930;2023-03-14T16:06:15;14.90;;;2.65;;
19944;SDS011;10134;50.952;6.930;2023-03-14T16:08:42;12.98;;;2.67;;
19944;SDS011;10134;50.952;6.930;2023-03-14T16:11:10;12.45;;;3.25;;
19944;SDS011;10134;50.952;6.930;2023-03-14T16:13:38;11.15;;;2.67;;
19944;SDS011;10134;50.952;6.930;2023-03-14T16:16:06;14.02;;;3.67;;
19944;SDS011;10134;50.952;6.930;2023-03-14T16:18:35;10.65;;;2.72;;
19944;SDS011;10134;50.952;6.930;2023-03-14T16:21:13;9.15;;;2.45;;